sensor_id;sensor_type;location;lat;lon;timestamp;P1;durP1;ratioP1;P2;durP2;ratioP2
18947;SDS011;9607;51.600;7.558;2023-01-09T00:02:22;3.00;;;1.58;;
18947;SDS011;9607;51.600;7.558;2023-01-09T00:04:49;2.58;;;1.27;;
18947;SDS011;9607;51.600;7.558;2023-01-09T00:07:16;1.42;;;1.10;;
18947;SDS011;9607;51.600;7.558;2023-01-09T00:09:43;1.90;;;1.45;;
18947;SDS011;9607;51.600;7.558;2023-01-09T00:12:10;2.53;;;1.30;;
18947;SDS011;9607;51.600;7.558;2023-01-09T00:14:36;2.72;;;1.42;;
18947;SDS011;9607;51.600;7.558;2023-01-09T00:17:03;1.65;;;1.30;;
18947;SDS011;9607;51.600;7.558;2023-01-09T00:19:32;1.30;;;1.20;;
18947;SDS011;9607;51.600;7.558;2023-01-09T00:21:59;2.45;;;1.35;;
18947;SDS011;9607;51.600;7.558;2023-01-09T00:24:26;3.47;;;1.77;;
18947;SDS011;9607;51.600;7.558;2023-01-09T00:26:53;2.63;;;1.35;;
18947;SDS011;9607;51.600;7.558;2023-01-09T00:29:20;2.00;;;1.25;;
18947;SDS011;9607;51.600;7.558;2023-01-09T00:31:46;3.67;;;1.17;;
18947;SDS011;9607;51.600;7.558;2023-01-09T00:34:13;1.50;;;1.10;;
18947;SDS011;9607;51.600;7.558;2023-01-09T00:36:41;2.03;;;1.20;;
18947;SDS011;9607;51.600;7.558;2023-01-09T00:39:08;2.03;;;1.30;;
18947;SDS011;9607;51.600;7.558;2023-01-09T00:41:36;2.30;;;1.20;;
18947;SDS011;9607;51.600;7.558;2023-01-09T00:44:06;1.08;;;0.90;;
18947;SDS011;9607;51.600;7.558;2023-01-09T00:46:36;1.23;;;0.90;;
18947;SDS011;9607;51.600;7.558;2023-01-09T00:49:07;2.47;;;0.80;;
18947;SDS011;9607;51.600;7.558;2023-01-09T00:51:35;1.02;;;0.93;;
18947;SDS011;9607;51.600;7.558;2023-01-09T00:54:04;2.88;;;0.90;;
18947;SDS011;9607;51.600;7.558;2023-01-09T00:56:33;1.73;;;1.15;;
18947;SDS011;9607;51.600;7.558;2023-01-09T00:59:01;1.42;;;0.60;;
18947;SDS011;9607;51.600;7.558;2023-01-09T01:01:28;2.10;;;1.00;;
18947;SDS011;9607;51.600;7.558;2023-01-09T01:03:55;2.08;;;0.90;;
18947;SDS011;9607;51.600;7.558;2023-01-09T01:06:22;1.95;;;0.80;;
18947;SDS011;9607;51.600;7.558;2023-01-09T01:09:08;0.70;;;0.70;;
18947;SDS011;9607;51.600;7.558;2023-01-09T01:11:34;0.63;;;0.63;;
18947;SDS011;9607;51.600;7.558;2023-01-09T01:14:01;0.75;;;0.55;;
18947;SDS011;9607;51.600;7.558;2023-01-09T01:16:28;0.73;;;0.73;;
18947;SDS011;9607;51.600;7.558;2023-01-09T01:18:55;0.50;;;0.50;;
18947;SDS011;9607;51.600;7.558;2023-01-09T01:21:22;0.52;;;0.52;;
18947;SDS011;9607;51.600;7.558;2023-01-09T01:23:49;0.85;;;0.40;;
18947;SDS011;9607;51.600;7.558;2023-01-09T01:26:17;0.63;;;0.63;;
18947;SDS011;9607;51.600;7.558;2023-01-09T01:28:44;2.05;;;0.70;;
18947;SDS011;9607;51.600;7.558;2023-01-09T01:31:14;0.98;;;0.50;;
18947;SDS011;9607;51.600;7.558;2023-01-09T01:33:42;0.45;;;0.45;;
18947;SDS011;9607;51.600;7.558;2023-01-09T01:36:09;0.77;;;0.45;;
18947;SDS011;9607;51.600;7.558;2023-01-09T01:38:36;0.68;;;0.60;;
18947;SDS011;9607;51.600;7.558;2023-01-09T01:41:03;0.43;;;0.43;;
18947;SDS011;9607;51.600;7.558;2023-01-09T01:46:15;0.57;;;0.40;;
18947;SDS011;9607;51.600;7.558;2023-01-09T01:48:42;1.95;;;0.50;;
18947;SDS011;9607;51.600;7.558;2023-01-09T01:51:11;1.90;;;0.40;;
18947;SDS011;9607;51.600;7.558;2023-01-09T01:53:40;0.82;;;0.55;;
18947;SDS011;9607;51.600;7.558;2023-01-09T01:56:13;0.65;;;0.40;;
18947;SDS011;9607;51.600;7.558;2023-01-09T01:58:43;1.52;;;0.45;;
18947;SDS011;9607;51.600;7.558;2023-01-09T02:01:15;1.05;;;0.40;;
18947;SDS011;9607;51.600;7.558;2023-01-09T02:03:43;1.85;;;0.40;;
18947;SDS011;9607;51.600;7.558;2023-01-09T02:06:10;0.55;;;0.55;;
18947;SDS011;9607;51.600;7.558;2023-01-09T02:08:40;2.08;;;0.60;;
18947;SDS011;9607;51.600;7.558;2023-01-09T02:11:08;1.10;;;0.52;;
18947;SDS011;9607;51.600;7.558;2023-01-09T02:13:37;0.85;;;0.63;;
18947;SDS011;9607;51.600;7.558;2023-01-09T02:16:16;0.63;;;0.63;;
18947;SDS011;9607;51.600;7.558;2023-01-09T02:18:57;1.40;;;0.80;;
18947;SDS011;9607;51.600;7.558;2023-01-09T02:21:34;0.73;;;0.70;;
18947;SDS011;9607;51.600;7.558;2023-01-09T02:24:10;0.70;;;0.70;;
18947;SDS011;9607;51.600;7.558;2023-01-09T02:27:18;0.80;;;0.70;;
18947;SDS011;9607;51.600;7.558;2023-01-09T02:30:12;1.33;;;0.68;;
18947;SDS011;9607;51.600;7.558;2023-01-09T02:32:57;0.60;;;0.60;;
18947;SDS011;9607;51.600;7.558;2023-01-09T02:35:36;0.88;;;0.70;;
18947;SDS011;9607;51.600;7.558;2023-01-09T02:38:15;0.70;;;0.70;;
18947;SDS011;9607;51.600;7.558;2023-01-09T02:40:49;1.70;;;0.90;;
18947;SDS011;9607;51.600;7.558;2023-01-09T02:43:21;0.90;;;0.90;;
18947;SDS011;9607;51.600;7.558;2023-01-09T02:45:50;1.10;;;1.10;;
18947;SDS011;9607;51.600;7.558;2023-01-09T02:48:17;2.17;;;1.10;;
18947;SDS011;9607;51.600;7.558;2023-01-09T02:50:46;0.98;;;0.98;;
18947;SDS011;9607;51.600;7.558;2023-01-09T02:53:26;1.23;;;1.13;;
18947;SDS011;9607;51.600;7.558;2023-01-09T02:56:25;1.30;;;1.05;;
18947;SDS011;9607;51.600;7.558;2023-01-09T02:59:09;1.45;;;1.20;;
18947;SDS011;9607;51.600;7.558;2023-01-09T03:01:47;0.95;;;0.90;;
18947;SDS011;9607;51.600;7.558;2023-01-09T03:04:24;1.48;;;1.10;;
18947;SDS011;9607;51.600;7.558;2023-01-09T03:06:57;1.60;;;0.80;;
18947;SDS011;9607;51.600;7.558;2023-01-09T03:09:30;2.40;;;1.02;;
18947;SDS011;9607;51.600;7.558;2023-01-09T03:12:00;2.75;;;0.90;;
18947;SDS011;9607;51.600;7.558;2023-01-09T03:14:31;1.15;;;0.90;;
18947;SDS011;9607;51.600;7.558;2023-01-09T03:17:03;2.38;;;1.05;;
18947;SDS011;9607;51.600;7.558;2023-01-09T03:19:35;5.25;;;1.45;;
18947;SDS011;9607;51.600;7.558;2023-01-09T03:22:03;2.65;;;1.10;;
18947;SDS011;9607;51.600;7.558;2023-01-09T03:24:32;1.42;;;1.00;;
18947;SDS011;9607;51.600;7.558;2023-01-09T03:26:58;1.23;;;1.13;;
18947;SDS011;9607;51.600;7.558;2023-01-09T03:29:26;3.55;;;1.13;;
18947;SDS011;9607;51.600;7.558;2023-01-09T03:31:53;2.30;;;1.08;;
18947;SDS011;9607;51.600;7.558;2023-01-09T03:34:21;2.05;;;1.20;;
18947;SDS011;9607;51.600;7.558;2023-01-09T03:36:48;3.80;;;1.58;;
18947;SDS011;9607;51.600;7.558;2023-01-09T03:39:15;3.17;;;1.70;;
18947;SDS011;9607;51.600;7.558;2023-01-09T03:41:42;3.25;;;1.60;;
18947;SDS011;9607;51.600;7.558;2023-01-09T03:44:08;3.90;;;1.80;;
18947;SDS011;9607;51.600;7.558;2023-01-09T03:46:35;2.03;;;1.13;;
18947;SDS011;9607;51.600;7.558;2023-01-09T03:49:04;4.07;;;1.73;;
18947;SDS011;9607;51.600;7.558;2023-01-09T03:51:33;2.65;;;1.60;;
18947;SDS011;9607;51.600;7.558;2023-01-09T03:54:00;4.00;;;1.80;;
18947;SDS011;9607;51.600;7.558;2023-01-09T03:56:26;2.85;;;1.80;;
18947;SDS011;9607;51.600;7.558;2023-01-09T03:58:53;2.95;;;1.75;;
18947;SDS011;9607;51.600;7.558;2023-01-09T04:01:20;1.88;;;1.58;;
18947;SDS011;9607;51.600;7.558;2023-01-09T04:03:47;3.45;;;1.38;;
18947;SDS011;9607;51.600;7.558;2023-01-09T04:06:14;3.35;;;1.60;;
18947;SDS011;9607;51.600;7.558;2023-01-09T04:08:42;2.50;;;2.00;;
18947;SDS011;9607;51.600;7.558;2023-01-09T04:11:10;2.08;;;1.50;;
18947;SDS011;9607;51.600;7.558;2023-01-09T04:13:37;2.13;;;1.58;;
18947;SDS011;9607;51.600;7.558;2023-01-09T04:16:04;2.53;;;1.70;;
18947;SDS011;9607;51.600;7.558;2023-01-09T04:18:31;5.28;;;1.90;;
18947;SDS011;9607;51.600;7.558;2023-01-09T04:20:58;3.33;;;2.00;;
18947;SDS011;9607;51.600;7.558;2023-01-09T04:23:25;3.33;;;1.98;;
18947;SDS011;9607;51.600;7.558;2023-01-09T04:25:53;4.57;;;1.90;;
18947;SDS011;9607;51.600;7.558;2023-01-09T04:28:20;4.15;;;2.08;;
18947;SDS011;9607;51.600;7.558;2023-01-09T04:30:47;4.40;;;1.88;;
18947;SDS011;9607;51.600;7.558;2023-01-09T04:33:14;3.03;;;1.90;;
18947;SDS011;9607;51.600;7.558;2023-01-09T04:35:40;5.45;;;2.15;;
18947;SDS011;9607;51.600;7.558;2023-01-09T04:38:07;4.53;;;2.15;;
18947;SDS011;9607;51.600;7.558;2023-01-09T04:40:34;2.53;;;1.85;;
18947;SDS011;9607;51.600;7.558;2023-01-09T04:43:02;3.20;;;2.10;;
18947;SDS011;9607;51.600;7.558;2023-01-09T04:45:29;6.40;;;1.98;;
18947;SDS011;9607;51.600;7.558;2023-01-09T04:47:56;2.70;;;2.13;;
18947;SDS011;9607;51.600;7.558;2023-01-09T04:50:23;3.80;;;1.98;;
18947;SDS011;9607;51.600;7.558;2023-01-09T04:52:49;5.00;;;2.00;;
18947;SDS011;9607;51.600;7.558;2023-01-09T04:55:16;3.60;;;1.65;;
18947;SDS011;9607;51.600;7.558;2023-01-09T04:57:43;3.00;;;1.67;;
18947;SDS011;9607;51.600;7.558;2023-01-09T05:00:12;4.68;;;1.95;;
18947;SDS011;9607;51.600;7.558;2023-01-09T05:02:39;4.75;;;1.80;;
18947;SDS011;9607;51.600;7.558;2023-01-09T05:05:07;5.95;;;1.83;;
18947;SDS011;9607;51.600;7.558;2023-01-09T05:07:35;4.20;;;1.98;;
18947;SDS011;9607;51.600;7.558;2023-01-09T05:10:02;5.78;;;1.88;;
18947;SDS011;9607;51.600;7.558;2023-01-09T05:12:30;4.07;;;1.52;;
18947;SDS011;9607;51.600;7.558;2023-01-09T05:14:58;4.32;;;1.67;;
18947;SDS011;9607;51.600;7.558;2023-01-09T05:17:26;4.13;;;1.70;;
18947;SDS011;9607;51.600;7.558;2023-01-09T05:19:53;2.75;;;1.50;;
18947;SDS011;9607;51.600;7.558;2023-01-09T05:22:20;5.13;;;2.05;;
18947;SDS011;9607;51.600;7.558;2023-01-09T05:24:47;4.43;;;1.70;;
18947;SDS011;9607;51.600;7.558;2023-01-09T05:27:14;5.18;;;1.88;;
18947;SDS011;9607;51.600;7.558;2023-01-09T05:29:40;4.05;;;1.45;;
18947;SDS011;9607;51.600;7.558;2023-01-09T05:32:07;3.40;;;1.90;;
18947;SDS011;9607;51.600;7.558;2023-01-09T05:34:38;3.40;;;1.75;;
18947;SDS011;9607;51.600;7.558;2023-01-09T05:37:05;3.55;;;2.10;;
18947;SDS011;9607;51.600;7.558;2023-01-09T05:39:33;4.78;;;2.88;;
18947;SDS011;9607;51.600;7.558;2023-01-09T05:41:59;7.70;;;3.20;;
18947;SDS011;9607;51.600;7.558;2023-01-09T05:44:26;7.07;;;2.80;;
18947;SDS011;9607;51.600;7.558;2023-01-09T05:46:53;5.00;;;3.15;;
18947;SDS011;9607;51.600;7.558;2023-01-09T05:49:20;9.82;;;2.95;;
18947;SDS011;9607;51.600;7.558;2023-01-09T05:51:48;6.55;;;2.60;;
18947;SDS011;9607;51.600;7.558;2023-01-09T05:54:15;6.93;;;2.70;;
18947;SDS011;9607;51.600;7.558;2023-01-09T05:56:42;7.25;;;2.60;;
18947;SDS011;9607;51.600;7.558;2023-01-09T05:59:09;7.18;;;2.90;;
18947;SDS011;9607;51.600;7.558;2023-01-09T06:01:37;6.55;;;2.42;;
18947;SDS011;9607;51.600;7.558;2023-01-09T06:04:04;8.40;;;2.47;;
18947;SDS011;9607;51.600;7.558;2023-01-09T06:06:30;6.60;;;2.80;;
18947;SDS011;9607;51.600;7.558;2023-01-09T06:08:59;7.80;;;3.00;;
18947;SDS011;9607;51.600;7.558;2023-01-09T06:11:27;7.72;;;2.47;;
18947;SDS011;9607;51.600;7.558;2023-01-09T06:13:54;6.38;;;2.50;;
18947;SDS011;9607;51.600;7.558;2023-01-09T06:16:21;7.97;;;2.92;;
18947;SDS011;9607;51.600;7.558;2023-01-09T06:18:48;7.15;;;2.47;;
18947;SDS011;9607;51.600;7.558;2023-01-09T06:21:15;8.63;;;1.98;;
18947;SDS011;9607;51.600;7.558;2023-01-09T06:23:43;2.75;;;1.40;;
18947;SDS011;9607;51.600;7.558;2023-01-09T06:26:11;9.10;;;1.88;;
18947;SDS011;9607;51.600;7.558;2023-01-09T06:28:38;7.53;;;1.80;;
18947;SDS011;9607;51.600;7.558;2023-01-09T06:31:05;2.60;;;1.30;;
18947;SDS011;9607;51.600;7.558;2023-01-09T06:33:32;3.40;;;1.55;;
18947;SDS011;9607;51.600;7.558;2023-01-09T06:35:59;3.90;;;1.35;;
18947;SDS011;9607;51.600;7.558;2023-01-09T06:38:26;2.88;;;1.30;;
18947;SDS011;9607;51.600;7.558;2023-01-09T06:40:53;5.28;;;1.70;;
18947;SDS011;9607;51.600;7.558;2023-01-09T06:43:21;6.68;;;1.73;;
18947;SDS011;9607;51.600;7.558;2023-01-09T06:45:48;5.53;;;1.58;;
18947;SDS011;9607;51.600;7.558;2023-01-09T06:48:15;4.18;;;1.40;;
18947;SDS011;9607;51.600;7.558;2023-01-09T06:50:42;6.25;;;1.40;;
18947;SDS011;9607;51.600;7.558;2023-01-09T06:53:09;4.30;;;1.60;;
18947;SDS011;9607;51.600;7.558;2023-01-09T06:55:36;4.68;;;1.35;;
18947;SDS011;9607;51.600;7.558;2023-01-09T06:58:03;7.28;;;1.40;;
18947;SDS011;9607;51.600;7.558;2023-01-09T07:00:31;6.05;;;1.20;;
18947;SDS011;9607;51.600;7.558;2023-01-09T07:02:59;9.18;;;1.70;;
18947;SDS011;9607;51.600;7.558;2023-01-09T07:05:26;5.78;;;1.50;;
18947;SDS011;9607;51.600;7.558;2023-01-09T07:07:53;3.80;;;1.48;;
18947;SDS011;9607;51.600;7.558;2023-01-09T07:10:21;4.95;;;1.65;;
18947;SDS011;9607;51.600;7.558;2023-01-09T07:12:48;6.32;;;2.15;;
18947;SDS011;9607;51.600;7.558;2023-01-09T07:15:15;6.55;;;1.70;;
18947;SDS011;9607;51.600;7.558;2023-01-09T07:17:43;5.88;;;2.10;;
18947;SDS011;9607;51.600;7.558;2023-01-09T07:20:10;6.43;;;1.58;;
18947;SDS011;9607;51.600;7.558;2023-01-09T07:22:37;6.70;;;1.70;;
18947;SDS011;9607;51.600;7.558;2023-01-09T07:25:04;3.47;;;1.65;;
18947;SDS011;9607;51.600;7.558;2023-01-09T07:27:31;8.35;;;1.80;;
18947;SDS011;9607;51.600;7.558;2023-01-09T07:29:58;5.82;;;1.50;;
18947;SDS011;9607;51.600;7.558;2023-01-09T07:32:25;5.05;;;1.52;;
18947;SDS011;9607;51.600;7.558;2023-01-09T07:34:53;5.53;;;1.67;;
18947;SDS011;9607;51.600;7.558;2023-01-09T07:37:20;3.38;;;1.30;;
18947;SDS011;9607;51.600;7.558;2023-01-09T07:39:47;4.00;;;1.45;;
18947;SDS011;9607;51.600;7.558;2023-01-09T07:42:14;2.22;;;1.20;;
18947;SDS011;9607;51.600;7.558;2023-01-09T07:44:41;4.70;;;1.30;;
18947;SDS011;9607;51.600;7.558;2023-01-09T07:47:08;4.72;;;1.30;;
18947;SDS011;9607;51.600;7.558;2023-01-09T07:49:35;5.28;;;1.80;;
18947;SDS011;9607;51.600;7.558;2023-01-09T07:52:03;6.95;;;1.30;;
18947;SDS011;9607;51.600;7.558;2023-01-09T07:54:30;4.25;;;1.30;;
18947;SDS011;9607;51.600;7.558;2023-01-09T07:56:57;6.05;;;1.58;;
18947;SDS011;9607;51.600;7.558;2023-01-09T07:59:24;7.25;;;1.10;;
18947;SDS011;9607;51.600;7.558;2023-01-09T08:01:51;6.25;;;1.48;;
18947;SDS011;9607;51.600;7.558;2023-01-09T08:04:18;5.15;;;2.13;;
18947;SDS011;9607;51.600;7.558;2023-01-09T08:06:45;7.25;;;1.50;;
18947;SDS011;9607;51.600;7.558;2023-01-09T08:09:13;4.13;;;1.80;;
18947;SDS011;9607;51.600;7.558;2023-01-09T08:11:40;6.18;;;1.92;;
18947;SDS011;9607;51.600;7.558;2023-01-09T08:14:07;3.25;;;1.50;;
18947;SDS011;9607;51.600;7.558;2023-01-09T08:16:34;2.72;;;0.90;;
18947;SDS011;9607;51.600;7.558;2023-01-09T08:19:01;3.53;;;1.08;;
18947;SDS011;9607;51.600;7.558;2023-01-09T08:21:28;6.65;;;1.40;;
18947;SDS011;9607;51.600;7.558;2023-01-09T08:23:54;4.28;;;1.20;;
18947;SDS011;9607;51.600;7.558;2023-01-09T08:26:23;5.75;;;1.23;;
18947;SDS011;9607;51.600;7.558;2023-01-09T08:28:49;5.97;;;1.55;;
18947;SDS011;9607;51.600;7.558;2023-01-09T08:31:16;3.15;;;1.75;;
18947;SDS011;9607;51.600;7.558;2023-01-09T08:33:43;2.92;;;1.10;;
18947;SDS011;9607;51.600;7.558;2023-01-09T08:36:10;4.95;;;1.30;;
18947;SDS011;9607;51.600;7.558;2023-01-09T08:38:37;6.47;;;1.52;;
18947;SDS011;9607;51.600;7.558;2023-01-09T08:41:04;2.92;;;1.30;;
18947;SDS011;9607;51.600;7.558;2023-01-09T08:43:46;3.22;;;1.08;;
18947;SDS011;9607;51.600;7.558;2023-01-09T08:46:30;3.50;;;1.23;;
18947;SDS011;9607;51.600;7.558;2023-01-09T08:49:15;2.45;;;1.00;;
18947;SDS011;9607;51.600;7.558;2023-01-09T08:51:41;5.63;;;1.15;;
18947;SDS011;9607;51.600;7.558;2023-01-09T08:54:09;4.93;;;1.02;;
18947;SDS011;9607;51.600;7.558;2023-01-09T08:56:36;3.30;;;1.10;;
18947;SDS011;9607;51.600;7.558;2023-01-09T08:59:04;4.93;;;1.33;;
18947;SDS011;9607;51.600;7.558;2023-01-09T09:01:31;2.70;;;1.08;;
18947;SDS011;9607;51.600;7.558;2023-01-09T09:03:57;4.97;;;1.45;;
18947;SDS011;9607;51.600;7.558;2023-01-09T09:06:24;4.95;;;1.13;;
18947;SDS011;9607;51.600;7.558;2023-01-09T09:08:51;4.90;;;1.35;;
18947;SDS011;9607;51.600;7.558;2023-01-09T09:11:18;5.90;;;1.50;;
18947;SDS011;9607;51.600;7.558;2023-01-09T09:13:45;4.28;;;1.48;;
18947;SDS011;9607;51.600;7.558;2023-01-09T09:16:13;2.92;;;1.17;;
18947;SDS011;9607;51.600;7.558;2023-01-09T09:18:40;1.90;;;0.95;;
18947;SDS011;9607;51.600;7.558;2023-01-09T09:21:07;2.38;;;0.93;;
18947;SDS011;9607;51.600;7.558;2023-01-09T09:23:35;4.10;;;1.25;;
18947;SDS011;9607;51.600;7.558;2023-01-09T09:26:02;4.35;;;1.00;;
18947;SDS011;9607;51.600;7.558;2023-01-09T09:28:29;3.67;;;0.93;;
18947;SDS011;9607;51.600;7.558;2023-01-09T09:30:56;3.47;;;0.90;;
18947;SDS011;9607;51.600;7.558;2023-01-09T09:33:24;6.35;;;1.00;;
18947;SDS011;9607;51.600;7.558;2023-01-09T09:35:51;5.32;;;1.30;;
18947;SDS011;9607;51.600;7.558;2023-01-09T09:38:18;4.03;;;1.10;;
18947;SDS011;9607;51.600;7.558;2023-01-09T09:40:47;6.03;;;0.90;;
18947;SDS011;9607;51.600;7.558;2023-01-09T09:46:48;3.70;;;1.10;;
18947;SDS011;9607;51.600;7.558;2023-01-09T09:49:25;2.22;;;0.98;;
18947;SDS011;9607;51.600;7.558;2023-01-09T09:52:01;2.95;;;0.95;;
18947;SDS011;9607;51.600;7.558;2023-01-09T09:54:37;4.47;;;1.20;;
18947;SDS011;9607;51.600;7.558;2023-01-09T09:57:08;3.33;;;1.40;;
18947;SDS011;9607;51.600;7.558;2023-01-09T09:59:39;3.67;;;1.10;;
18947;SDS011;9607;51.600;7.558;2023-01-09T10:02:13;5.95;;;1.00;;
18947;SDS011;9607;51.600;7.558;2023-01-09T10:04:53;3.40;;;0.85;;
18947;SDS011;9607;51.600;7.558;2023-01-09T10:07:25;5.22;;;1.10;;
18947;SDS011;9607;51.600;7.558;2023-01-09T10:09:57;4.00;;;1.27;;
18947;SDS011;9607;51.600;7.558;2023-01-09T10:12:30;4.60;;;1.33;;
18947;SDS011;9607;51.600;7.558;2023-01-09T10:14:59;3.05;;;1.10;;
18947;SDS011;9607;51.600;7.558;2023-01-09T10:17:41;5.70;;;1.23;;
18947;SDS011;9607;51.600;7.558;2023-01-09T10:20:40;4.78;;;1.50;;
18947;SDS011;9607;51.600;7.558;2023-01-09T10:26:24;3.15;;;1.25;;
18947;SDS011;9607;51.600;7.558;2023-01-09T10:29:05;2.28;;;0.93;;
18947;SDS011;9607;51.600;7.558;2023-01-09T10:31:48;5.95;;;2.03;;
18947;SDS011;9607;51.600;7.558;2023-01-09T10:34:31;4.75;;;1.20;;
18947;SDS011;9607;51.600;7.558;2023-01-09T10:37:13;4.38;;;1.52;;
18947;SDS011;9607;51.600;7.558;2023-01-09T10:39:44;3.53;;;1.40;;
18947;SDS011;9607;51.600;7.558;2023-01-09T10:42:17;3.63;;;1.63;;
18947;SDS011;9607;51.600;7.558;2023-01-09T10:44:48;3.90;;;1.40;;
18947;SDS011;9607;51.600;7.558;2023-01-09T10:47:21;3.65;;;1.20;;
18947;SDS011;9607;51.600;7.558;2023-01-09T10:49:52;2.30;;;1.30;;
18947;SDS011;9607;51.600;7.558;2023-01-09T10:52:25;2.20;;;0.95;;
18947;SDS011;9607;51.600;7.558;2023-01-09T10:54:59;3.03;;;1.58;;
18947;SDS011;9607;51.600;7.558;2023-01-09T10:57:36;2.33;;;1.10;;
18947;SDS011;9607;51.600;7.558;2023-01-09T11:00:12;3.55;;;1.30;;
18947;SDS011;9607;51.600;7.558;2023-01-09T11:02:41;5.28;;;2.17;;
18947;SDS011;9607;51.600;7.558;2023-01-09T11:05:10;3.70;;;1.45;;
18947;SDS011;9607;51.600;7.558;2023-01-09T11:07:41;1.80;;;1.17;;
18947;SDS011;9607;51.600;7.558;2023-01-09T11:10:11;4.15;;;1.50;;
18947;SDS011;9607;51.600;7.558;2023-01-09T11:12:39;6.28;;;1.58;;
18947;SDS011;9607;51.600;7.558;2023-01-09T11:15:22;6.05;;;1.75;;
18947;SDS011;9607;51.600;7.558;2023-01-09T11:17:54;4.00;;;1.73;;
18947;SDS011;9607;51.600;7.558;2023-01-09T11:20:40;6.53;;;1.60;;
18947;SDS011;9607;51.600;7.558;2023-01-09T11:23:20;3.25;;;1.52;;
18947;SDS011;9607;51.600;7.558;2023-01-09T11:25:53;6.00;;;1.70;;
18947;SDS011;9607;51.600;7.558;2023-01-09T11:28:20;3.40;;;1.48;;
18947;SDS011;9607;51.600;7.558;2023-01-09T11:30:51;3.20;;;1.17;;
18947;SDS011;9607;51.600;7.558;2023-01-09T11:33:20;4.35;;;1.08;;
18947;SDS011;9607;51.600;7.558;2023-01-09T11:35:53;4.18;;;1.38;;
18947;SDS011;9607;51.600;7.558;2023-01-09T11:38:24;3.85;;;1.35;;
18947;SDS011;9607;51.600;7.558;2023-01-09T11:40:52;3.95;;;1.55;;
18947;SDS011;9607;51.600;7.558;2023-01-09T11:43:23;5.70;;;1.63;;
18947;SDS011;9607;51.600;7.558;2023-01-09T11:45:56;4.53;;;1.60;;
18947;SDS011;9607;51.600;7.558;2023-01-09T11:48:29;3.28;;;1.70;;
18947;SDS011;9607;51.600;7.558;2023-01-09T11:51:02;3.97;;;1.77;;
18947;SDS011;9607;51.600;7.558;2023-01-09T11:53:44;4.13;;;1.13;;
18947;SDS011;9607;51.600;7.558;2023-01-09T11:56:19;6.30;;;1.58;;
18947;SDS011;9607;51.600;7.558;2023-01-09T11:58:46;4.90;;;1.70;;
18947;SDS011;9607;51.600;7.558;2023-01-09T12:01:17;3.47;;;1.10;;
18947;SDS011;9607;51.600;7.558;2023-01-09T12:04:13;4.40;;;1.13;;
18947;SDS011;9607;51.600;7.558;2023-01-09T12:06:54;5.82;;;1.40;;
18947;SDS011;9607;51.600;7.558;2023-01-09T12:09:37;4.95;;;1.20;;
18947;SDS011;9607;51.600;7.558;2023-01-09T12:12:13;4.43;;;1.30;;
18947;SDS011;9607;51.600;7.558;2023-01-09T12:14:50;4.18;;;1.10;;
18947;SDS011;9607;51.600;7.558;2023-01-09T12:20:30;3.92;;;1.48;;
18947;SDS011;9607;51.600;7.558;2023-01-09T12:23:08;3.58;;;1.20;;
18947;SDS011;9607;51.600;7.558;2023-01-09T12:25:49;4.78;;;1.17;;
18947;SDS011;9607;51.600;7.558;2023-01-09T12:28:32;3.28;;;1.38;;
18947;SDS011;9607;51.600;7.558;2023-01-09T12:31:10;3.30;;;1.25;;
18947;SDS011;9607;51.600;7.558;2023-01-09T12:33:53;3.15;;;1.45;;
18947;SDS011;9607;51.600;7.558;2023-01-09T12:36:28;3.05;;;1.73;;
18947;SDS011;9607;51.600;7.558;2023-01-09T12:39:05;3.20;;;1.38;;
18947;SDS011;9607;51.600;7.558;2023-01-09T12:41:52;3.72;;;1.40;;
18947;SDS011;9607;51.600;7.558;2023-01-09T12:44:40;2.05;;;1.30;;
18947;SDS011;9607;51.600;7.558;2023-01-09T12:50:16;4.97;;;1.67;;
18947;SDS011;9607;51.600;7.558;2023-01-09T12:53:16;6.93;;;2.00;;
18947;SDS011;9607;51.600;7.558;2023-01-09T12:55:49;2.53;;;1.38;;
18947;SDS011;9607;51.600;7.558;2023-01-09T12:58:28;5.38;;;1.60;;
18947;SDS011;9607;51.600;7.558;2023-01-09T13:00:59;4.55;;;1.48;;
18947;SDS011;9607;51.600;7.558;2023-01-09T13:03:31;3.10;;;1.65;;
18947;SDS011;9607;51.600;7.558;2023-01-09T13:06:02;5.55;;;1.80;;
18947;SDS011;9607;51.600;7.558;2023-01-09T13:08:33;8.48;;;1.85;;
18947;SDS011;9607;51.600;7.558;2023-01-09T13:11:05;5.30;;;1.92;;
18947;SDS011;9607;51.600;7.558;2023-01-09T13:13:41;2.95;;;1.75;;
18947;SDS011;9607;51.600;7.558;2023-01-09T13:16:12;2.45;;;1.40;;
18947;SDS011;9607;51.600;7.558;2023-01-09T13:18:44;5.22;;;1.45;;
18947;SDS011;9607;51.600;7.558;2023-01-09T13:21:15;3.38;;;1.52;;
18947;SDS011;9607;51.600;7.558;2023-01-09T13:23:43;2.60;;;1.10;;
18947;SDS011;9607;51.600;7.558;2023-01-09T13:26:16;4.13;;;1.30;;
18947;SDS011;9607;51.600;7.558;2023-01-09T13:28:51;5.10;;;1.50;;
18947;SDS011;9607;51.600;7.558;2023-01-09T13:34:22;3.28;;;1.35;;
18947;SDS011;9607;51.600;7.558;2023-01-09T13:36:51;3.33;;;1.23;;
18947;SDS011;9607;51.600;7.558;2023-01-09T13:39:20;2.30;;;1.48;;
18947;SDS011;9607;51.600;7.558;2023-01-09T13:41:50;3.38;;;1.50;;
18947;SDS011;9607;51.600;7.558;2023-01-09T13:44:39;3.97;;;1.83;;
18947;SDS011;9607;51.600;7.558;2023-01-09T13:47:13;2.70;;;1.40;;
18947;SDS011;9607;51.600;7.558;2023-01-09T13:52:52;5.53;;;1.90;;
18947;SDS011;9607;51.600;7.558;2023-01-09T13:55:22;3.42;;;1.60;;
18947;SDS011;9607;51.600;7.558;2023-01-09T14:00:48;3.63;;;1.95;;
18947;SDS011;9607;51.600;7.558;2023-01-09T14:03:19;4.25;;;1.60;;
18947;SDS011;9607;51.600;7.558;2023-01-09T14:08:49;4.90;;;1.65;;
18947;SDS011;9607;51.600;7.558;2023-01-09T14:11:37;5.03;;;1.42;;
18947;SDS011;9607;51.600;7.558;2023-01-09T14:14:06;7.22;;;1.90;;
18947;SDS011;9607;51.600;7.558;2023-01-09T14:16:47;4.10;;;1.70;;
18947;SDS011;9607;51.600;7.558;2023-01-09T14:19:29;6.75;;;2.30;;
18947;SDS011;9607;51.600;7.558;2023-01-09T14:22:00;4.15;;;2.22;;
18947;SDS011;9607;51.600;7.558;2023-01-09T14:24:28;3.80;;;1.90;;
18947;SDS011;9607;51.600;7.558;2023-01-09T14:26:59;7.20;;;2.20;;
18947;SDS011;9607;51.600;7.558;2023-01-09T14:29:40;3.28;;;1.67;;
18947;SDS011;9607;51.600;7.558;2023-01-09T14:35:21;3.60;;;1.65;;
18947;SDS011;9607;51.600;7.558;2023-01-09T14:38:04;3.20;;;1.90;;
18947;SDS011;9607;51.600;7.558;2023-01-09T14:40:46;7.03;;;2.40;;
18947;SDS011;9607;51.600;7.558;2023-01-09T14:43:20;5.20;;;2.25;;
18947;SDS011;9607;51.600;7.558;2023-01-09T14:45:58;2.05;;;1.60;;
18947;SDS011;9607;51.600;7.558;2023-01-09T14:48:30;4.65;;;1.90;;
18947;SDS011;9607;51.600;7.558;2023-01-09T14:51:00;4.10;;;2.00;;
18947;SDS011;9607;51.600;7.558;2023-01-09T14:53:32;4.72;;;2.10;;
18947;SDS011;9607;51.600;7.558;2023-01-09T14:56:02;4.10;;;2.05;;
18947;SDS011;9607;51.600;7.558;2023-01-09T14:58:30;5.60;;;2.40;;
18947;SDS011;9607;51.600;7.558;2023-01-09T15:01:00;8.43;;;2.80;;
18947;SDS011;9607;51.600;7.558;2023-01-09T15:03:31;3.53;;;2.08;;
18947;SDS011;9607;51.600;7.558;2023-01-09T15:06:04;4.85;;;1.80;;
18947;SDS011;9607;51.600;7.558;2023-01-09T15:08:31;4.25;;;2.08;;
18947;SDS011;9607;51.600;7.558;2023-01-09T15:10:58;4.78;;;2.22;;
18947;SDS011;9607;51.600;7.558;2023-01-09T15:13:27;5.75;;;2.70;;
18947;SDS011;9607;51.600;7.558;2023-01-09T15:15:57;4.88;;;2.70;;
18947;SDS011;9607;51.600;7.558;2023-01-09T15:18:26;3.97;;;2.45;;
18947;SDS011;9607;51.600;7.558;2023-01-09T15:20:56;7.07;;;2.83;;
18947;SDS011;9607;51.600;7.558;2023-01-09T15:23:27;7.45;;;2.80;;
18947;SDS011;9607;51.600;7.558;2023-01-09T15:25:55;5.05;;;2.58;;
18947;SDS011;9607;51.600;7.558;2023-01-09T15:28:27;3.80;;;2.40;;
18947;SDS011;9607;51.600;7.558;2023-01-09T15:30:58;6.55;;;3.05;;
18947;SDS011;9607;51.600;7.558;2023-01-09T15:33:28;5.28;;;2.80;;
18947;SDS011;9607;51.600;7.558;2023-01-09T15:35:55;3.60;;;2.78;;
18947;SDS011;9607;51.600;7.558;2023-01-09T15:38:28;5.82;;;3.05;;
18947;SDS011;9607;51.600;7.558;2023-01-09T15:41:02;5.75;;;2.75;;
18947;SDS011;9607;51.600;7.558;2023-01-09T15:43:32;8.00;;;3.47;;
18947;SDS011;9607;51.600;7.558;2023-01-09T15:46:00;10.23;;;3.20;;
18947;SDS011;9607;51.600;7.558;2023-01-09T15:48:28;9.50;;;3.90;;
18947;SDS011;9607;51.600;7.558;2023-01-09T15:50:57;9.00;;;4.05;;
18947;SDS011;9607;51.600;7.558;2023-01-09T15:53:29;7.38;;;3.83;;